sensor_id;sensor_type;location;lat;lon;timestamp;temperature;humidity
49901;DHT22;35789;48.414;12.768;2022-09-28T00:00:00;7.7;99.9
49901;DHT22;35789;48.414;12.768;2022-09-28T00:05:00;7.7;99.9
49901;DHT22;35789;48.414;12.768;2022-09-28T00:10:00;7.7;99.9
49901;DHT22;35789;48.414;12.768;2022-09-28T00:15:00;7.7;99.9
49901;DHT22;35789;48.414;12.768;2022-09-28T00:20:00;7.7;99.9
49901;DHT22;35789;48.414;12.768;2022-09-28T00:25:00;7.8;99.9
49901;DHT22;35789;48.414;12.768;2022-09-28T00:30:00;7.8;99.9
49901;DHT22;35789;48.414;12.768;2022-09-28T00:35:00;7.8;99.9
49901;DHT22;35789;48.414;12.768;2022-09-28T00:40:00;7.9;99.9
49901;DHT22;35789;48.414;12.768;2022-09-28T00:45:00;8.0;99.9
49901;DHT22;35789;48.414;12.768;2022-09-28T00:50:00;8.0;99.9
49901;DHT22;35789;48.414;12.768;2022-09-28T00:55:01;8.0;99.9
49901;DHT22;35789;48.414;12.768;2022-09-28T01:00:00;8.0;99.9
49901;DHT22;35789;48.414;12.768;2022-09-28T01:05:00;8.0;99.9
49901;DHT22;35789;48.414;12.768;2022-09-28T01:10:00;8.0;99.9
49901;DHT22;35789;48.414;12.768;2022-09-28T01:15:00;8.0;99.9
49901;DHT22;35789;48.414;12.768;2022-09-28T01:20:06;7.9;99.9
49901;DHT22;35789;48.414;12.768;2022-09-28T01:25:02;7.9;99.9
49901;DHT22;35789;48.414;12.768;2022-09-28T01:30:01;8.0;99.9
49901;DHT22;35789;48.414;12.768;2022-09-28T01:35:02;8.0;99.9
49901;DHT22;35789;48.414;12.768;2022-09-28T01:40:00;8.1;99.9
49901;DHT22;35789;48.414;12.768;2022-09-28T01:45:01;8.1;99.9
49901;DHT22;35789;48.414;12.768;2022-09-28T01:50:02;8.1;99.9
49901;DHT22;35789;48.414;12.768;2022-09-28T01:55:01;8.0;99.9
49901;DHT22;35789;48.414;12.768;2022-09-28T02:00:02;8.0;99.9
49901;DHT22;35789;48.414;12.768;2022-09-28T02:05:01;8.0;99.9
49901;DHT22;35789;48.414;12.768;2022-09-28T02:10:02;8.0;99.9
49901;DHT22;35789;48.414;12.768;2022-09-28T02:15:04;8.1;99.9
49901;DHT22;35789;48.414;12.768;2022-09-28T02:20:00;8.1;99.9
49901;DHT22;35789;48.414;12.768;2022-09-28T02:25:02;8.1;99.9
49901;DHT22;35789;48.414;12.768;2022-09-28T02:30:00;8.0;99.9
49901;DHT22;35789;48.414;12.768;2022-09-28T02:35:00;8.0;99.9
49901;DHT22;35789;48.414;12.768;2022-09-28T02:40:00;8.0;99.9
49901;DHT22;35789;48.414;12.768;2022-09-28T02:45:04;7.9;99.9
49901;DHT22;35789;48.414;12.768;2022-09-28T02:50:02;8.0;99.9
49901;DHT22;35789;48.414;12.768;2022-09-28T02:55:05;7.9;99.9
49901;DHT22;35789;48.414;12.768;2022-09-28T03:00:02;8.0;99.9
49901;DHT22;35789;48.414;12.768;2022-09-28T03:05:03;8.0;99.9
49901;DHT22;35789;48.414;12.768;2022-09-28T03:10:00;8.0;99.9
49901;DHT22;35789;48.414;12.768;2022-09-28T03:15:08;8.0;99.9
49901;DHT22;35789;48.414;12.768;2022-09-28T03:20:00;8.0;99.9
49901;DHT22;35789;48.414;12.768;2022-09-28T03:25:00;8.0;99.9
49901;DHT22;35789;48.414;12.768;2022-09-28T03:30:00;8.1;99.9
49901;DHT22;35789;48.414;12.768;2022-09-28T03:35:00;8.1;99.9
49901;DHT22;35789;48.414;12.768;2022-09-28T03:40:00;8.1;99.9
49901;DHT22;35789;48.414;12.768;2022-09-28T03:45:00;8.0;99.9
49901;DHT22;35789;48.414;12.768;2022-09-28T03:50:00;8.1;99.9
49901;DHT22;35789;48.414;12.768;2022-09-28T03:55:00;8.0;99.9
49901;DHT22;35789;48.414;12.768;2022-09-28T04:00:00;8.1;99.9
49901;DHT22;35789;48.414;12.768;2022-09-28T04:05:00;8.1;99.9
49901;DHT22;35789;48.414;12.768;2022-09-28T04:10:00;8.1;99.9
49901;DHT22;35789;48.414;12.768;2022-09-28T04:15:00;8.0;99.9
49901;DHT22;35789;48.414;12.768;2022-09-28T04:20:00;8.1;99.9
49901;DHT22;35789;48.414;12.768;2022-09-28T04:25:00;8.1;99.9
49901;DHT22;35789;48.414;12.768;2022-09-28T04:30:00;8.0;99.9
49901;DHT22;35789;48.414;12.768;2022-09-28T04:35:00;8.0;99.9
49901;DHT22;35789;48.414;12.768;2022-09-28T04:40:00;8.0;99.9
49901;DHT22;35789;48.414;12.768;2022-09-28T04:45:00;8.1;99.9
49901;DHT22;35789;48.414;12.768;2022-09-28T04:50:00;8.0;99.9
49901;DHT22;35789;48.414;12.768;2022-09-28T04:55:00;8.0;99.9
49901;DHT22;35789;48.414;12.768;2022-09-28T05:00:00;8.0;99.9
49901;DHT22;35789;48.414;12.768;2022-09-28T05:05:00;8.0;99.9
49901;DHT22;35789;48.414;12.768;2022-09-28T05:10:00;8.1;99.9
49901;DHT22;35789;48.414;12.768;2022-09-28T05:15:00;8.1;99.9
49901;DHT22;35789;48.414;12.768;2022-09-28T05:20:00;8.1;99.9
49901;DHT22;35789;48.414;12.768;2022-09-28T05:25:00;8.1;99.9
49901;DHT22;35789;48.414;12.768;2022-09-28T05:30:00;8.2;99.9
49901;DHT22;35789;48.414;12.768;2022-09-28T05:35:00;8.2;99.9
49901;DHT22;35789;48.414;12.768;2022-09-28T05:40:00;8.2;99.9
49901;DHT22;35789;48.414;12.768;2022-09-28T05:45:00;8.2;99.9
49901;DHT22;35789;48.414;12.768;2022-09-28T05:50:00;8.2;99.9
49901;DHT22;35789;48.414;12.768;2022-09-28T05:55:00;8.3;99.9
49901;DHT22;35789;48.414;12.768;2022-09-28T06:00:00;8.3;99.9
49901;DHT22;35789;48.414;12.768;2022-09-28T06:05:00;8.3;99.9
49901;DHT22;35789;48.414;12.768;2022-09-28T06:10:00;8.4;99.9
49901;DHT22;35789;48.414;12.768;2022-09-28T06:15:00;8.5;99.9
49901;DHT22;35789;48.414;12.768;2022-09-28T06:20:00;8.5;99.9
49901;DHT22;35789;48.414;12.768;2022-09-28T06:25:00;8.5;99.9
49901;DHT22;35789;48.414;12.768;2022-09-28T06:30:00;8.6;99.9
49901;DHT22;35789;48.414;12.768;2022-09-28T06:35:00;8.7;99.9
49901;DHT22;35789;48.414;12.768;2022-09-28T06:40:00;8.6;99.9
49901;DHT22;35789;48.414;12.768;2022-09-28T06:45:00;8.6;99.9
49901;DHT22;35789;48.414;12.768;2022-09-28T06:50:00;8.6;99.9
49901;DHT22;35789;48.414;12.768;2022-09-28T06:55:00;8.7;99.9
49901;DHT22;35789;48.414;12.768;2022-09-28T07:00:00;8.8;99.9
49901;DHT22;35789;48.414;12.768;2022-09-28T07:05:00;8.8;99.9
49901;DHT22;35789;48.414;12.768;2022-09-28T07:10:00;8.7;99.9
49901;DHT22;35789;48.414;12.768;2022-09-28T07:15:00;8.7;99.9
49901;DHT22;35789;48.414;12.768;2022-09-28T07:20:00;8.7;99.9
49901;DHT22;35789;48.414;12.768;2022-09-28T07:25:00;8.8;99.9
49901;DHT22;35789;48.414;12.768;2022-09-28T07:30:00;8.8;99.9
49901;DHT22;35789;48.414;12.768;2022-09-28T07:35:00;8.8;99.9
49901;DHT22;35789;48.414;12.768;2022-09-28T07:40:00;8.8;99.9
49901;DHT22;35789;48.414;12.768;2022-09-28T07:45:00;8.8;99.9
49901;DHT22;35789;48.414;12.768;2022-09-28T07:50:00;8.8;99.9
49901;DHT22;35789;48.414;12.768;2022-09-28T07:55:00;8.9;99.9
49901;DHT22;35789;48.414;12.768;2022-09-28T08:00:00;8.9;99.9
49901;DHT22;35789;48.414;12.768;2022-09-28T08:05:00;9.0;99.9
49901;DHT22;35789;48.414;12.768;2022-09-28T08:10:00;9.1;99.9
49901;DHT22;35789;48.414;12.768;2022-09-28T08:15:00;9.1;99.9
49901;DHT22;35789;48.414;12.768;2022-09-28T08:20:00;9.2;99.9
49901;DHT22;35789;48.414;12.768;2022-09-28T08:25:00;9.2;99.9
49901;DHT22;35789;48.414;12.768;2022-09-28T08:30:00;9.3;99.9
49901;DHT22;35789;48.414;12.768;2022-09-28T08:35:00;9.4;99.9
49901;DHT22;35789;48.414;12.768;2022-09-28T08:40:00;9.5;99.9
49901;DHT22;35789;48.414;12.768;2022-09-28T08:45:04;9.6;99.9
49901;DHT22;35789;48.414;12.768;2022-09-28T08:50:00;9.6;99.9
49901;DHT22;35789;48.414;12.768;2022-09-28T08:55:01;9.6;99.9
49901;DHT22;35789;48.414;12.768;2022-09-28T09:00:00;9.8;99.9
49901;DHT22;35789;48.414;12.768;2022-09-28T09:05:02;9.7;99.9
49901;DHT22;35789;48.414;12.768;2022-09-28T09:10:02;9.7;99.9
49901;DHT22;35789;48.414;12.768;2022-09-28T09:15:03;9.8;99.9
49901;DHT22;35789;48.414;12.768;2022-09-28T09:20:02;9.8;99.9
49901;DHT22;35789;48.414;12.768;2022-09-28T09:25:02;9.9;99.9
49901;DHT22;35789;48.414;12.768;2022-09-28T09:30:02;9.9;99.9
49901;DHT22;35789;48.414;12.768;2022-09-28T09:35:05;10.0;99.9
49901;DHT22;35789;48.414;12.768;2022-09-28T09:40:03;10.0;99.9
49901;DHT22;35789;48.414;12.768;2022-09-28T09:45:03;10.1;99.9
49901;DHT22;35789;48.414;12.768;2022-09-28T09:50:00;10.1;99.9
49901;DHT22;35789;48.414;12.768;2022-09-28T09:55:01;10.2;99.9
49901;DHT22;35789;48.414;12.768;2022-09-28T10:00:01;10.3;99.9
49901;DHT22;35789;48.414;12.768;2022-09-28T10:05:01;10.2;99.9
49901;DHT22;35789;48.414;12.768;2022-09-28T10:10:00;10.4;99.9
49901;DHT22;35789;48.414;12.768;2022-09-28T10:15:00;10.4;99.9
49901;DHT22;35789;48.414;12.768;2022-09-28T10:20:00;10.6;99.9
49901;DHT22;35789;48.414;12.768;2022-09-28T10:25:00;10.7;99.9
49901;DHT22;35789;48.414;12.768;2022-09-28T10:30:01;10.7;99.9
49901;DHT22;35789;48.414;12.768;2022-09-28T10:35:11;10.6;99.9
49901;DHT22;35789;48.414;12.768;2022-09-28T10:40:00;10.5;99.9
49901;DHT22;35789;48.414;12.768;2022-09-28T10:45:01;10.4;99.9
49901;DHT22;35789;48.414;12.768;2022-09-28T10:50:00;10.4;99.9
49901;DHT22;35789;48.414;12.768;2022-09-28T10:55:00;10.3;99.9
49901;DHT22;35789;48.414;12.768;2022-09-28T11:00:00;10.5;99.9
49901;DHT22;35789;48.414;12.768;2022-09-28T11:05:00;10.5;99.9
49901;DHT22;35789;48.414;12.768;2022-09-28T11:10:00;10.5;99.9
49901;DHT22;35789;48.414;12.768;2022-09-28T11:15:00;10.5;99.9
49901;DHT22;35789;48.414;12.768;2022-09-28T11:20:00;10.7;99.9
49901;DHT22;35789;48.414;12.768;2022-09-28T11:30:00;10.9;99.9
49901;DHT22;35789;48.414;12.768;2022-09-28T11:35:00;10.9;99.9
49901;DHT22;35789;48.414;12.768;2022-09-28T11:40:02;11.1;99.9
49901;DHT22;35789;48.414;12.768;2022-09-28T11:45:02;11.2;99.9
49901;DHT22;35789;48.414;12.768;2022-09-28T11:50:00;11.1;99.9
49901;DHT22;35789;48.414;12.768;2022-09-28T11:55:00;11.0;99.9
49901;DHT22;35789;48.414;12.768;2022-09-28T12:00:00;10.9;99.9
49901;DHT22;35789;48.414;12.768;2022-09-28T12:05:03;11.1;99.9
49901;DHT22;35789;48.414;12.768;2022-09-28T12:10:02;11.2;99.9
49901;DHT22;35789;48.414;12.768;2022-09-28T12:15:02;11.1;99.9
49901;DHT22;35789;48.414;12.768;2022-09-28T12:20:00;11.1;99.9
49901;DHT22;35789;48.414;12.768;2022-09-28T12:25:00;11.0;99.9
49901;DHT22;35789;48.414;12.768;2022-09-28T12:30:02;11.0;99.9
49901;DHT22;35789;48.414;12.768;2022-09-28T12:35:00;11.0;99.9
49901;DHT22;35789;48.414;12.768;2022-09-28T12:40:04;10.9;99.9
49901;DHT22;35789;48.414;12.768;2022-09-28T12:50:03;10.9;99.9
49901;DHT22;35789;48.414;12.768;2022-09-28T12:55:04;10.8;99.9
49901;DHT22;35789;48.414;12.768;2022-09-28T13:00:02;10.7;99.9
49901;DHT22;35789;48.414;12.768;2022-09-28T13:05:03;10.7;99.9
49901;DHT22;35789;48.414;12.768;2022-09-28T13:10:02;10.6;99.9
49901;DHT22;35789;48.414;12.768;2022-09-28T13:15:04;10.8;99.9
49901;DHT22;35789;48.414;12.768;2022-09-28T13:20:02;10.8;99.9
49901;DHT22;35789;48.414;12.768;2022-09-28T13:25:01;10.9;99.9
49901;DHT22;35789;48.414;12.768;2022-09-28T13:30:01;10.8;99.9
49901;DHT22;35789;48.414;12.768;2022-09-28T13:35:00;11.0;99.9
49901;DHT22;35789;48.414;12.768;2022-09-28T13:40:00;11.0;99.9
49901;DHT22;35789;48.414;12.768;2022-09-28T13:50:02;10.8;99.9
49901;DHT22;35789;48.414;12.768;2022-09-28T13:55:02;10.6;99.9
49901;DHT22;35789;48.414;12.768;2022-09-28T14:00:01;10.7;99.9
49901;DHT22;35789;48.414;12.768;2022-09-28T14:05:01;10.8;99.9
49901;DHT22;35789;48.414;12.768;2022-09-28T14:10:13;10.8;99.9
49901;DHT22;35789;48.414;12.768;2022-09-28T14:15:00;10.9;99.9
49901;DHT22;35789;48.414;12.768;2022-09-28T14:20:01;10.8;99.9
49901;DHT22;35789;48.414;12.768;2022-09-28T14:25:03;10.9;99.9
49901;DHT22;35789;48.414;12.768;2022-09-28T14:35:00;11.1;99.9
49901;DHT22;35789;48.414;12.768;2022-09-28T14:40:00;11.0;99.9
49901;DHT22;35789;48.414;12.768;2022-09-28T14:50:11;10.9;99.9
49901;DHT22;35789;48.414;12.768;2022-09-28T14:55:00;10.8;99.9
49901;DHT22;35789;48.414;12.768;2022-09-28T15:00:00;10.8;99.9
49901;DHT22;35789;48.414;12.768;2022-09-28T15:05:06;10.8;99.9
49901;DHT22;35789;48.414;12.768;2022-09-28T15:10:00;10.7;99.9
49901;DHT22;35789;48.414;12.768;2022-09-28T15:15:01;10.7;99.9
49901;DHT22;35789;48.414;12.768;2022-09-28T15:20:04;10.5;99.9
49901;DHT22;35789;48.414;12.768;2022-09-28T15:25:00;10.5;99.9
49901;DHT22;35789;48.414;12.768;2022-09-28T15:30:00;10.4;99.9
49901;DHT22;35789;48.414;12.768;2022-09-28T15:35:08;10.4;99.9
49901;DHT22;35789;48.414;12.768;2022-09-28T15:40:00;10.2;99.9
49901;DHT22;35789;48.414;12.768;2022-09-28T15:45:01;10.2;99.9
49901;DHT22;35789;48.414;12.768;2022-09-28T15:50:00;10.2;99.9
49901;DHT22;35789;48.414;12.768;2022-09-28T15:55:00;10.0;99.9
49901;DHT22;35789;48.414;12.768;2022-09-28T16:00:00;10.0;99.9
49901;DHT22;35789;48.414;12.768;2022-09-28T16:05:00;9.9;99.9
49901;DHT22;35789;48.414;12.768;2022-09-28T16:10:02;9.9;99.9
49901;DHT22;35789;48.414;12.768;2022-09-28T16:15:03;10.0;99.9
49901;DHT22;35789;48.414;12.768;2022-09-28T16:20:00;10.0;99.9
49901;DHT22;35789;48.414;12.768;2022-09-28T16:25:00;9.9;99.9
49901;DHT22;35789;48.414;12.768;2022-09-28T16:30:02;9.8;99.9
49901;DHT22;35789;48.414;12.768;2022-09-28T16:35:10;9.8;99.9
49901;DHT22;35789;48.414;12.768;2022-09-28T16:40:00;9.8;99.9
49901;DHT22;35789;48.414;12.768;2022-09-28T16:45:00;9.8;99.9
49901;DHT22;35789;48.414;12.768;2022-09-28T16:50:00;9.7;99.9
49901;DHT22;35789;48.414;12.768;2022-09-28T16:55:00;9.6;99.9
49901;DHT22;35789;48.414;12.768;2022-09-28T17:00:00;9.6;99.9
49901;DHT22;35789;48.414;12.768;2022-09-28T17:05:00;9.6;99.9
49901;DHT22;35789;48.414;12.768;2022-09-28T17:10:00;9.6;99.9
49901;DHT22;35789;48.414;12.768;2022-09-28T17:15:00;9.5;99.9
49901;DHT22;35789;48.414;12.768;2022-09-28T17:20:00;9.5;99.9
49901;DHT22;35789;48.414;12.768;2022-09-28T17:25:00;9.6;99.9
49901;DHT22;35789;48.414;12.768;2022-09-28T17:30:00;9.6;99.9
49901;DHT22;35789;48.414;12.768;2022-09-28T17:35:00;9.5;99.9
49901;DHT22;35789;48.414;12.768;2022-09-28T17:40:00;9.5;99.9
49901;DHT22;35789;48.414;12.768;2022-09-28T17:45:00;9.4;99.9
49901;DHT22;35789;48.414;12.768;2022-09-28T17:50:00;9.4;99.9
49901;DHT22;35789;48.414;12.768;2022-09-28T17:55:00;9.4;99.9
49901;DHT22;35789;48.414;12.768;2022-09-28T18:00:00;9.4;99.9
49901;DHT22;35789;48.414;12.768;2022-09-28T18:05:00;9.4;99.9
49901;DHT22;35789;48.414;12.768;2022-09-28T18:10:00;9.3;99.9
49901;DHT22;35789;48.414;12.768;2022-09-28T18:15:00;9.3;99.9
49901;DHT22;35789;48.414;12.768;2022-09-28T18:20:00;9.2;99.9
49901;DHT22;35789;48.414;12.768;2022-09-28T18:25:00;9.2;99.9
49901;DHT22;35789;48.414;12.768;2022-09-28T18:30:00;9.2;99.9
49901;DHT22;35789;48.414;12.768;2022-09-28T18:35:00;9.2;99.9
49901;DHT22;35789;48.414;12.768;2022-09-28T18:40:00;9.2;99.9
49901;DHT22;35789;48.414;12.768;2022-09-28T18:45:00;9.2;99.9
49901;DHT22;35789;48.414;12.768;2022-09-28T18:50:00;9.1;99.9
49901;DHT22;35789;48.414;12.768;2022-09-28T18:55:00;9.2;99.9
49901;DHT22;35789;48.414;12.768;2022-09-28T19:00:00;9.1;99.9
49901;DHT22;35789;48.414;12.768;2022-09-28T19:05:00;9.1;99.9
49901;DHT22;35789;48.414;12.768;2022-09-28T19:10:00;9.1;99.9
49901;DHT22;35789;48.414;12.768;2022-09-28T19:15:00;9.1;99.9
49901;DHT22;35789;48.414;12.768;2022-09-28T19:20:00;9.1;99.9
49901;DHT22;35789;48.414;12.768;2022-09-28T19:25:00;9.1;99.9
49901;DHT22;35789;48.414;12.768;2022-09-28T19:30:00;9.2;99.9
49901;DHT22;35789;48.414;12.768;2022-09-28T19:35:00;9.2;99.9
49901;DHT22;35789;48.414;12.768;2022-09-28T19:40:00;9.2;99.9
49901;DHT22;35789;48.414;12.768;2022-09-28T19:45:00;9.1;99.9
49901;DHT22;35789;48.414;12.768;2022-09-28T19:50:00;9.1;99.9
49901;DHT22;35789;48.414;12.768;2022-09-28T19:55:00;9.1;99.9
49901;DHT22;35789;48.414;12.768;2022-09-28T20:00:00;9.1;99.9
49901;DHT22;35789;48.414;12.768;2022-09-28T20:05:00;9.0;99.9
49901;DHT22;35789;48.414;12.768;2022-09-28T20:10:00;9.0;99.9
49901;DHT22;35789;48.414;12.768;2022-09-28T20:15:00;9.0;99.9
49901;DHT22;35789;48.414;12.768;2022-09-28T20:20:00;9.1;99.9
49901;DHT22;35789;48.414;12.768;2022-09-28T20:25:00;9.0;99.9
49901;DHT22;35789;48.414;12.768;2022-09-28T20:30:00;9.0;99.9
49901;DHT22;35789;48.414;12.768;2022-09-28T20:35:00;9.0;99.9
49901;DHT22;35789;48.414;12.768;2022-09-28T20:40:00;8.9;99.9
49901;DHT22;35789;48.414;12.768;2022-09-28T20:45:00;8.9;99.9
49901;DHT22;35789;48.414;12.768;2022-09-28T20:50:00;8.9;99.9
49901;DHT22;35789;48.414;12.768;2022-09-28T20:55:00;8.9;99.9
49901;DHT22;35789;48.414;12.768;2022-09-28T21:00:00;8.9;99.9
49901;DHT22;35789;48.414;12.768;2022-09-28T21:05:01;8.9;99.9
49901;DHT22;35789;48.414;12.768;2022-09-28T21:10:00;8.9;99.9
49901;DHT22;35789;48.414;12.768;2022-09-28T21:15:00;8.9;99.9
49901;DHT22;35789;48.414;12.768;2022-09-28T21:20:00;8.9;99.9
49901;DHT22;35789;48.414;12.768;2022-09-28T21:25:00;8.8;99.9
49901;DHT22;35789;48.414;12.768;2022-09-28T21:30:00;8.9;99.9
49901;DHT22;35789;48.414;12.768;2022-09-28T21:35:00;8.8;99.9
49901;DHT22;35789;48.414;12.768;2022-09-28T21:40:00;8.8;99.9
49901;DHT22;35789;48.414;12.768;2022-09-28T21:45:00;8.8;99.9
49901;DHT22;35789;48.414;12.768;2022-09-28T21:50:00;8.8;99.9
49901;DHT22;35789;48.414;12.768;2022-09-28T21:55:00;8.8;99.9
49901;DHT22;35789;48.414;12.768;2022-09-28T22:00:00;8.8;99.9
49901;DHT22;35789;48.414;12.768;2022-09-28T22:05:00;8.7;99.9
49901;DHT22;35789;48.414;12.768;2022-09-28T22:10:00;8.7;99.9
49901;DHT22;35789;48.414;12.768;2022-09-28T22:15:00;8.7;99.9
49901;DHT22;35789;48.414;12.768;2022-09-28T22:20:00;8.6;99.9
49901;DHT22;35789;48.414;12.768;2022-09-28T22:25:00;8.7;99.9
49901;DHT22;35789;48.414;12.768;2022-09-28T22:30:00;8.6;99.9
49901;DHT22;35789;48.414;12.768;2022-09-28T22:35:00;8.7;99.9
49901;DHT22;35789;48.414;12.768;2022-09-28T22:40:00;8.7;99.9
49901;DHT22;35789;48.414;12.768;2022-09-28T22:45:00;8.7;99.9
49901;DHT22;35789;48.414;12.768;2022-09-28T22:50:00;8.6;99.9
49901;DHT22;35789;48.414;12.768;2022-09-28T22:55:00;8.6;99.9
49901;DHT22;35789;48.414;12.768;2022-09-28T23:00:00;8.5;99.9
49901;DHT22;35789;48.414;12.768;2022-09-28T23:05:00;8.5;99.9
49901;DHT22;35789;48.414;12.768;2022-09-28T23:10:00;8.4;99.9
49901;DHT22;35789;48.414;12.768;2022-09-28T23:15:00;8.4;99.9
49901;DHT22;35789;48.414;12.768;2022-09-28T23:20:00;8.4;99.9
49901;DHT22;35789;48.414;12.768;2022-09-28T23:25:00;8.3;99.9
49901;DHT22;35789;48.414;12.768;2022-09-28T23:30:00;8.3;99.9
49901;DHT22;35789;48.414;12.768;2022-09-28T23:35:00;8.3;99.9
49901;DHT22;35789;48.414;12.768;2022-09-28T23:40:00;8.3;99.9
49901;DHT22;35789;48.414;12.768;2022-09-28T23:45:00;8.3;99.9
49901;DHT22;35789;48.414;12.768;2022-09-28T23:50:00;8.2;99.9
49901;DHT22;35789;48.414;12.768;2022-09-28T23:55:00;8.2;99.9
